aviador You're here:

CYAM Decoded Metar

SAULT SAINTE MARIE in ON, CANADA
Report Time2018-02-20 13:00:00
UTC Time2018-02-20 13:54:39
Flight Rules ifr IFR
Wind090° at 08 kt
W.Decomp.*RWY 12: 7.4 kt HW 3.1 kt LCW
RWY 04: 4.4 kt HW 6.7 kt RCW
W.Rank090° ranks 3
Current wind is above 090° avg. (6.0)
Visibility3219 m
Phenomena:Mist
Clouds:Scattered 004 Hf
Overcast 006 Hf
Expected CloudBase > 800 ft AGL from Temp-Dew spread
Ceiling600 ft
Temp-7°C (ISA -21)
Dew Point-9°C (86% RH)
AAT-12.9°C
QNH1012 hPa
Density Alt-1,864 ft
Elevation630 ft
Report Wrong Elevation
Raw Report
CYAM 201300Z 09008KT 2SM BR SCT004 OVC006 M07/M09 A2988 RMK
FG2SF2ST4 SLP133=

Extra information for CYAM:More info

Metar Taf Metar & Taf Last 4 Metars F.Rules Stats Wind Profile Meteogram Temp Stats Airport Information Weather charts Add Link Nearby VenuesMetar ALERT Operation Metar Decoded Social comments